Time;durP1;ratioP1;P1;durP2;ratioP2;P2;SDS_P1;SDS_P2;PMS_P1;PMS_P2;Temp;Humidity;BMP_temperature;BMP_pressure;BME280_temperature;BME280_humidity;BME280_pressure;Samples;Min_cycle;Max_cycle;Signal;HPM_P1;HPM_P2
2022/09/22 00:01:02;;;;;;;3.67;1.95;;;9.80;83.60;;;;;;5097850;28;20365;-77
2022/09/22 00:03:36;;;;;;;4.82;2.65;;;9.80;83.50;;;;;;5114769;28;20047;-77
2022/09/22 00:06:10;;;;;;;5.32;2.58;;;9.80;83.50;;;;;;5114580;28;20044;-76
2022/09/22 00:08:37;;;;;;;;;;;9.80;83.60;;;;;;5114934;28;20040;-76
2022/09/22 00:11:05;;;;;;;7.30;4.00;;;9.80;84.50;;;;;;5097628;28;19938;-77
2022/09/22 00:13:32;;;;;;;5.55;3.38;;;9.70;84.10;;;;;;5114373;28;20035;-77
2022/09/22 00:16:00;;;;;;;4.28;3.25;;;9.70;84.00;;;;;;5114352;28;20042;-76
2022/09/22 00:18:26;;;;;;;6.75;4.80;;;9.70;83.90;;;;;;5114238;28;20043;-76
2022/09/22 00:20:52;;;;;;;7.78;4.72;;;9.70;84.30;;;;;;5114247;28;20103;-77
2022/09/22 00:23:18;;;;;;;5.15;4.03;;;9.80;84.90;;;;;;5114525;28;20449;-76
2022/09/22 00:25:44;;;;;;;8.32;5.40;;;9.80;84.60;;;;;;5114377;28;20146;-77
2022/09/22 00:28:11;;;;;;;9.45;4.93;;;9.80;84.70;;;;;;5114078;28;20070;-76
2022/09/22 00:30:41;;;;;;;7.55;4.60;;;9.70;84.60;;;;;;5114237;28;20447;-77
2022/09/22 00:33:08;;;;;;;8.57;4.38;;;9.70;84.50;;;;;;5114052;28;20039;-76
2022/09/22 00:35:36;;;;;;;4.85;3.70;;;9.70;84.70;;;;;;5113900;28;20059;-76
2022/09/22 00:38:06;;;;;;;5.95;4.07;;;9.70;84.60;;;;;;5113913;28;20044;-76
2022/09/22 00:40:36;;;;;;;8.23;4.18;;;9.70;84.80;;;;;;5114106;28;20045;-76
2022/09/22 00:43:20;;;;;;;7.47;5.25;;;9.70;84.70;;;;;;5113805;28;20491;-76
2022/09/22 00:45:53;;;;;;;5.47;4.15;;;9.70;85.00;;;;;;5113799;28;20078;-76
2022/09/22 00:48:21;;;;;;;3.78;3.30;;;9.60;85.10;;;;;;5113768;28;20043;-76
2022/09/22 00:50:50;;;;;;;4.72;3.35;;;9.60;85.20;;;;;;5112753;28;20047;-76
2022/09/22 00:53:17;;;;;;;3.40;3.00;;;9.50;84.90;;;;;;5113590;28;20491;-76
2022/09/22 00:55:56;;;;;;;5.55;2.72;;;9.50;84.70;;;;;;5113818;28;20051;-76
2022/09/22 00:58:29;;;;;;;3.25;2.55;;;9.50;84.70;;;;;;5113517;28;20430;-76
2022/09/22 01:00:55;;;;;;;2.63;2.42;;;9.50;84.80;;;;;;5113445;28;20040;-76
2022/09/22 01:03:22;;;;;;;2.42;2.00;;;9.40;84.80;;;;;;5113464;28;20499;-76
2022/09/22 01:05:50;;;;;;;3.28;1.80;;;9.30;84.70;;;;;;5096539;28;20492;-76
2022/09/22 01:08:18;;;;;;;2.22;1.80;;;9.30;84.60;;;;;;5096637;28;20043;-75
2022/09/22 01:10:44;;;;;;;3.35;2.05;;;9.20;84.60;;;;;;5113215;28;20043;-76
2022/09/22 01:13:21;;;;;;;1.80;1.70;;;9.10;84.60;;;;;;5113521;28;20051;-76
2022/09/22 01:15:59;;;;;;;2.50;1.70;;;9.10;84.60;;;;;;5113509;28;20400;-76
2022/09/22 01:18:37;;;;;;;1.52;1.40;;;9.00;84.30;;;;;;5113037;28;20040;-75
2022/09/22 01:21:50;;;;;;;1.80;1.33;;;9.00;84.40;;;;;;5113349;28;20032;-76
2022/09/22 01:24:34;;;;;;;3.42;1.30;;;8.90;84.40;;;;;;5113322;28;20044;-76
2022/09/22 01:27:23;;;;;;;1.38;1.25;;;8.90;84.20;;;;;;5113294;28;20039;-76
2022/09/22 01:30:21;;;;;;;1.92;1.70;;;8.80;84.10;;;;;;5113038;28;20036;-76
2022/09/22 01:33:00;;;;;;;1.88;1.67;;;8.80;84.00;;;;;;5113060;28;20387;-76
2022/09/22 01:35:43;;;;;;;1.90;1.48;;;8.70;84.10;;;;;;5112651;28;20062;-76
2022/09/22 01:38:20;;;;;;;1.60;1.50;;;8.60;84.20;;;;;;5112767;28;20498;-75
2022/09/22 01:41:00;;;;;;;2.92;1.73;;;8.50;84.20;;;;;;5112666;28;20044;-76
2022/09/22 01:43:39;;;;;;;2.92;2.03;;;8.40;84.90;;;;;;5112792;28;20116;-76
2022/09/22 01:46:11;;;;;;;2.58;2.30;;;8.40;85.10;;;;;;5112669;28;20518;-75
2022/09/22 01:48:41;;;;;;;2.30;2.10;;;8.40;84.90;;;;;;5112867;28;20476;-76
2022/09/22 01:51:20;;;;;;;3.20;2.28;;;8.40;85.10;;;;;;5112754;28;20104;-76
2022/09/22 01:54:13;;;;;;;2.80;2.47;;;8.40;85.30;;;;;;5112767;28;20054;-75
2022/09/22 01:56:41;;;;;;;4.88;2.80;;;8.40;85.60;;;;;;5112436;28;20514;-76
2022/09/22 01:59:09;;;;;;;4.03;3.20;;;8.40;85.90;;;;;;5112692;28;20062;-76
2022/09/22 02:01:45;;;;;;;3.47;2.97;;;8.40;86.00;;;;;;5112191;28;20046;-77
2022/09/22 02:04:17;;;;;;;2.80;2.47;;;8.50;85.80;;;;;;5112328;28;20502;-77
2022/09/22 02:07:05;;;;;;;2.42;2.22;;;8.50;85.70;;;;;;5112449;28;20075;-76
2022/09/22 02:09:33;;;;;;;2.35;2.15;;;8.50;85.80;;;;;;5111521;28;20048;-76
2022/09/22 02:12:00;;;;;;;2.13;1.60;;;8.50;85.60;;;;;;5112463;28;20452;-77
2022/09/22 02:14:26;;;;;;;1.67;1.55;;;8.40;85.40;;;;;;5112139;28;20075;-77
2022/09/22 02:16:53;;;;;;;1.70;1.42;;;8.40;85.20;;;;;;5112144;28;20086;-77
2022/09/22 02:19:49;;;;;;;1.33;1.20;;;8.40;85.20;;;;;;5112427;28;20043;-77
2022/09/22 02:22:15;;;;;;;3.08;1.52;;;8.40;85.60;;;;;;5095515;28;20048;-77
2022/09/22 02:24:43;;;;;;;3.13;1.63;;;8.30;85.60;;;;;;5095205;28;20039;-77
2022/09/22 02:27:24;;;;;;;2.35;1.27;;;8.40;85.60;;;;;;5112065;28;20049;-76
2022/09/22 02:29:55;;;;;;;1.50;1.40;;;8.40;85.70;;;;;;5095213;28;20100;-77
2022/09/22 02:32:22;;;;;;;1.55;1.45;;;8.40;85.70;;;;;;5112375;28;20036;-77
2022/09/22 02:34:48;;;;;;;3.33;1.55;;;8.40;85.60;;;;;;5111944;28;20060;-77
2022/09/22 02:37:38;;;;;;;1.25;1.15;;;8.40;85.50;;;;;;5112003;28;20380;-76
2022/09/22 02:40:19;;;;;;;2.20;2.00;;;8.40;85.40;;;;;;5095003;28;20035;-76
2022/09/22 02:43:21;;;;;;;2.40;1.75;;;8.40;85.30;;;;;;5094988;28;20036;-76
2022/09/22 02:46:10;;;;;;;2.53;1.98;;;8.40;85.40;;;;;;5094655;28;20035;-76
2022/09/22 02:48:41;;;;;;;2.53;2.05;;;8.30;85.80;;;;;;5111977;28;20039;-76
2022/09/22 02:51:08;;;;;;;2.05;1.85;;;8.30;85.80;;;;;;5095184;28;20418;-77
2022/09/22 02:53:35;;;;;;;3.47;1.85;;;8.30;86.10;;;;;;5111860;28;20040;-76
2022/09/22 02:56:02;;;;;;;2.45;2.25;;;8.40;86.00;;;;;;5095207;28;20051;-77
2022/09/22 02:58:28;;;;;;;2.20;1.95;;;8.30;85.90;;;;;;5094759;28;20098;-77
2022/09/22 03:00:53;;;;;;;3.10;2.70;;;8.40;85.90;;;;;;5111693;28;20039;-76
2022/09/22 03:03:19;;;;;;;2.95;2.50;;;8.30;85.90;;;;;;5112007;28;20040;-76
2022/09/22 03:05:45;;;;;;;4.00;3.08;;;8.30;85.90;;;;;;5111667;28;20043;-76
2022/09/22 03:08:10;;;;;;;3.40;3.08;;;8.30;85.60;;;;;;5094995;28;20039;-76
2022/09/22 03:10:36;;;;;;;4.75;3.30;;;8.20;85.50;;;;;;5094705;28;20487;-77
2022/09/22 03:13:02;;;;;;;3.75;3.08;;;8.20;85.60;;;;;;5094648;28;20047;-76
2022/09/22 03:15:28;;;;;;;3.88;3.47;;;8.10;85.80;;;;;;5115015;28;20050;-76
2022/09/22 03:17:54;;;;;;;4.60;3.90;;;8.10;86.10;;;;;;5115432;28;20036;-76
2022/09/22 03:20:20;;;;;;;4.97;3.80;;;8.10;86.00;;;;;;5098424;28;20145;-76
2022/09/22 03:22:46;;;;;;;7.20;4.63;;;8.10;86.30;;;;;;5115374;28;20046;-76
2022/09/22 03:25:12;;;;;;;4.22;3.67;;;8.10;86.30;;;;;;5115391;28;20040;-76
2022/09/22 03:27:38;;;;;;;4.07;3.53;;;8.10;86.20;;;;;;5081609;28;20044;-76
2022/09/22 03:30:06;;;;;;;3.78;3.40;;;8.00;86.40;;;;;;5098245;28;20073;-76
2022/09/22 03:32:32;;;;;;;4.03;3.22;;;8.10;86.40;;;;;;5115078;28;20051;-76
2022/09/22 03:34:58;;;;;;;3.80;3.40;;;8.10;86.40;;;;;;5115203;28;20113;-76
2022/09/22 03:37:24;;;;;;;5.32;3.15;;;8.10;86.30;;;;;;5115038;28;20467;-76
2022/09/22 03:39:49;;;;;;;3.67;3.13;;;8.00;86.40;;;;;;5115061;28;20043;-76
2022/09/22 03:42:15;;;;;;;4.95;3.58;;;8.10;86.30;;;;;;5081059;28;20067;-77
2022/09/22 03:44:41;;;;;;;5.93;4.05;;;8.00;86.60;;;;;;5098098;28;20035;-76
2022/09/22 03:47:07;;;;;;;3.78;3.38;;;8.00;86.70;;;;;;5114913;28;20040;-76
2022/09/22 03:49:33;;;;;;;8.05;3.75;;;8.10;86.80;;;;;;5114962;28;20043;-76
2022/09/22 03:51:59;;;;;;;3.72;3.22;;;8.00;86.70;;;;;;5097874;28;20040;-76
2022/09/22 03:54:25;;;;;;;4.60;2.88;;;8.10;86.50;;;;;;5097877;28;20066;-76
2022/09/22 03:56:50;;;;;;;4.75;3.40;;;8.00;86.40;;;;;;5114811;28;20036;-76
2022/09/22 03:59:16;;;;;;;3.75;3.00;;;8.00;86.40;;;;;;5114703;28;20373;-76
2022/09/22 04:01:42;;;;;;;5.57;3.03;;;8.00;86.30;;;;;;5114581;28;20036;-76
2022/09/22 04:04:08;;;;;;;6.07;3.70;;;8.00;86.30;;;;;;5114642;28;20035;-76
2022/09/22 04:06:35;;;;;;;6.38;3.67;;;8.00;86.30;;;;;;5097844;28;20039;-77
2022/09/22 04:09:01;;;;;;;6.85;4.28;;;8.00;86.40;;;;;;5114679;28;20044;-77
2022/09/22 04:11:27;;;;;;;4.95;4.18;;;7.90;86.40;;;;;;5114435;28;20399;-77
2022/09/22 04:13:53;;;;;;;5.63;4.07;;;7.80;86.60;;;;;;5114443;28;20047;-77
2022/09/22 04:16:19;;;;;;;4.35;3.70;;;7.80;86.70;;;;;;5114277;28;20074;-76
2022/09/22 04:18:45;;;;;;;5.10;3.90;;;7.90;86.60;;;;;;5114390;28;20080;-77
2022/09/22 04:21:10;;;;;;;4.70;4.10;;;7.90;86.80;;;;;;5097289;28;20044;-76
2022/09/22 04:23:36;;;;;;;7.90;4.85;;;7.90;86.90;;;;;;5097259;28;20040;-77
2022/09/22 04:26:03;;;;;;;8.85;3.90;;;7.90;86.90;;;;;;5112880;28;20075;-76
2022/09/22 04:28:29;;;;;;;5.68;4.13;;;8.00;86.80;;;;;;5114359;28;20043;-76
2022/09/22 04:30:54;;;;;;;5.75;3.53;;;8.00;86.70;;;;;;5097112;28;20046;-76
2022/09/22 04:33:21;;;;;;;5.90;3.45;;;8.00;86.90;;;;;;5114269;28;20130;-76
2022/09/22 04:35:48;;;;;;;5.55;3.33;;;8.00;86.70;;;;;;5113885;28;20138;-76
2022/09/22 04:38:14;;;;;;;3.75;3.00;;;8.00;86.70;;;;;;5113943;28;20070;-77
2022/09/22 04:40:40;;;;;;;7.82;3.15;;;8.00;86.60;;;;;;5096878;28;20042;-77
2022/09/22 04:43:05;;;;;;;4.28;3.10;;;7.90;86.50;;;;;;5096898;28;20036;-77
2022/09/22 04:45:31;;;;;;;3.92;3.40;;;7.90;86.60;;;;;;5096927;28;20040;-78
2022/09/22 04:47:57;;;;;;;6.45;3.88;;;7.90;86.40;;;;;;5097008;28;20084;-77
2022/09/22 04:50:23;;;;;;;4.78;3.38;;;7.80;86.60;;;;;;5096725;28;20545;-77
2022/09/22 04:52:54;;;;;;;6.60;3.75;;;7.80;86.60;;;;;;5113508;28;20059;-76
2022/09/22 04:55:21;;;;;;;5.25;3.70;;;7.80;86.60;;;;;;5113628;28;20051;-77
2022/09/22 04:57:56;;;;;;;5.32;3.35;;;7.80;86.60;;;;;;5113431;28;20046;-77
2022/09/22 05:00:24;;;;;;;5.53;3.10;;;7.80;86.60;;;;;;5113588;28;20040;-76
2022/09/22 05:02:50;;;;;;;3.55;3.08;;;7.70;86.70;;;;;;5113408;28;20122;-77
2022/09/22 05:05:16;;;;;;;6.57;3.95;;;7.70;86.90;;;;;;5113633;28;20123;-76
2022/09/22 05:07:45;;;;;;;6.65;3.28;;;7.70;87.00;;;;;;5096626;28;20051;-76
2022/09/22 05:10:18;;;;;;;5.68;3.67;;;7.70;87.10;;;;;;5110957;28;20047;-76
2022/09/22 05:12:46;;;;;;;4.45;3.58;;;7.70;87.20;;;;;;5107709;28;20081;-76
2022/09/22 05:15:13;;;;;;;4.20;3.70;;;7.70;87.50;;;;;;5090925;28;20047;-76
2022/09/22 05:17:47;;;;;;;8.27;4.18;;;7.70;87.70;;;;;;5106916;28;20040;-77
2022/09/22 05:20:13;;;;;;;8.18;3.85;;;7.80;87.30;;;;;;5105424;28;20043;-77
2022/09/22 05:22:39;;;;;;;10.45;4.22;;;7.70;87.20;;;;;;5106734;28;20155;-76
2022/09/22 05:25:07;;;;;;;37.58;6.60;;;7.70;87.10;;;;;;5107367;28;20048;-77
2022/09/22 05:27:32;;;;;;;23.05;6.22;;;7.70;87.10;;;;;;5107289;28;20394;-77
2022/09/22 05:29:58;;;;;;;18.52;5.20;;;7.70;87.50;;;;;;5089818;28;20043;-76
2022/09/22 05:32:24;;;;;;;15.35;4.80;;;7.70;88.00;;;;;;5106130;28;20047;-76
2022/09/22 05:34:49;;;;;;;12.55;3.85;;;7.70;88.00;;;;;;5106755;28;20055;-76
2022/09/22 05:37:15;;;;;;;7.93;3.38;;;7.70;88.00;;;;;;5106567;28;20082;-76
2022/09/22 05:39:41;;;;;;;5.25;3.38;;;7.70;87.50;;;;;;5107270;28;20385;-76
2022/09/22 05:42:06;;;;;;;5.72;3.65;;;7.60;87.50;;;;;;5109156;28;20067;-77
2022/09/22 05:44:32;;;;;;;5.53;3.15;;;7.70;87.50;;;;;;5112739;28;20574;-77
2022/09/22 05:46:58;;;;;;;9.52;4.25;;;7.70;87.80;;;;;;5096013;28;20097;-78
2022/09/22 05:49:23;;;;;;;12.32;3.78;;;7.60;87.50;;;;;;5112482;28;20490;-78
2022/09/22 05:51:54;;;;;;;8.65;4.25;;;7.60;87.60;;;;;;5112722;28;20043;-77
2022/09/22 05:54:19;;;;;;;6.15;4.18;;;7.60;87.50;;;;;;5096323;28;20100;-78
2022/09/22 05:56:45;;;;;;;9.68;4.50;;;7.60;87.60;;;;;;5112252;28;20048;-78
2022/09/22 05:59:11;;;;;;;8.30;4.13;;;7.70;87.80;;;;;;5112493;28;20102;-78
2022/09/22 06:01:37;;;;;;;7.60;4.18;;;7.70;88.30;;;;;;5112663;28;20039;-78
2022/09/22 06:04:03;;;;;;;7.78;4.35;;;7.70;88.30;;;;;;5112362;28;20046;-76
2022/09/22 06:06:29;;;;;;;8.18;4.30;;;7.70;88.30;;;;;;5095589;28;20122;-78
2022/09/22 06:08:54;;;;;;;7.15;4.47;;;7.80;88.50;;;;;;5112135;28;20498;-78
2022/09/22 06:11:20;;;;;;;7.18;3.90;;;7.80;88.30;;;;;;5112469;28;20039;-78
2022/09/22 06:13:49;;;;;;;8.95;4.10;;;7.80;88.20;;;;;;5112204;28;20080;-78
2022/09/22 06:16:16;;;;;;;9.07;4.20;;;7.80;88.80;;;;;;5095276;28;20040;-78
2022/09/22 06:18:45;;;;;;;9.60;4.60;;;7.90;89.00;;;;;;5094947;28;20039;-78
2022/09/22 06:21:11;;;;;;;8.60;5.25;;;7.90;89.00;;;;;;5095125;28;20047;-77
2022/09/22 06:23:38;;;;;;;6.88;4.43;;;7.90;88.80;;;;;;5112156;28;20400;-78
2022/09/22 06:26:03;;;;;;;9.05;5.00;;;8.00;89.10;;;;;;5112084;28;20040;-78
2022/09/22 06:28:29;;;;;;;4.63;3.67;;;8.00;89.10;;;;;;5112155;28;20130;-78
2022/09/22 06:30:57;;;;;;;7.78;4.72;;;8.00;89.10;;;;;;5094736;28;20514;-78
2022/09/22 06:33:23;;;;;;;9.60;4.53;;;8.10;89.10;;;;;;5095108;28;20048;-78
2022/09/22 06:35:49;;;;;;;6.78;4.97;;;8.10;89.10;;;;;;5077936;28;20089;-78
2022/09/22 06:38:15;;;;;;;7.68;4.25;;;8.20;89.20;;;;;;5095064;28;20138;-77
2022/09/22 06:40:41;;;;;;;6.50;3.95;;;8.20;89.00;;;;;;5111907;28;20071;-78
2022/09/22 06:43:11;;;;;;;7.50;4.80;;;8.20;88.90;;;;;;5095269;28;20124;-78
2022/09/22 06:45:43;;;;;;;7.32;5.05;;;8.30;88.80;;;;;;5095914;28;20071;-78
2022/09/22 06:48:10;;;;;;;8.32;4.85;;;8.40;88.70;;;;;;5111986;28;20070;-78
2022/09/22 06:50:39;;;;;;;8.75;5.57;;;8.50;88.70;;;;;;5115446;28;20050;-78
2022/09/22 06:53:19;;;;;;;9.00;5.45;;;8.50;88.50;;;;;;5083245;28;20043;-79
2022/09/22 06:55:45;;;;;;;7.60;5.40;;;8.50;89.10;;;;;;5115861;28;20043;-78
2022/09/22 06:58:12;;;;;;;10.90;5.57;;;8.60;88.70;;;;;;5115739;28;20047;-77
2022/09/22 07:00:40;;;;;;;9.60;6.50;;;8.70;88.90;;;;;;5116025;28;20081;-78
2022/09/22 07:03:19;;;;;;;9.77;5.57;;;8.90;89.10;;;;;;5116119;28;20035;-78
2022/09/22 07:05:57;;;;;;;11.27;6.25;;;9.00;89.20;;;;;;5116093;28;20039;-78
2022/09/22 07:08:24;;;;;;;9.02;7.70;;;9.10;88.80;;;;;;5098845;28;20066;-78
2022/09/22 07:10:55;;;;;;;11.70;8.15;;;9.10;88.50;;;;;;5115573;28;20482;-78
2022/09/22 07:13:22;;;;;;;15.18;7.63;;;9.30;88.60;;;;;;5115608;28;20122;-78
2022/09/22 07:15:47;;;;;;;10.23;6.78;;;9.40;88.60;;;;;;5115434;28;20043;-78
2022/09/22 07:18:13;;;;;;;9.23;6.45;;;9.50;88.40;;;;;;5115342;28;20040;-77
2022/09/22 07:20:39;;;;;;;14.20;7.63;;;9.60;88.60;;;;;;5115658;28;20044;-78
2022/09/22 07:23:15;;;;;;;9.85;6.15;;;9.70;88.50;;;;;;5115424;28;20506;-77
2022/09/22 07:25:40;;;;;;;7.75;5.53;;;9.80;88.10;;;;;;5115342;28;20039;-77
2022/09/22 07:28:10;;;;;;;8.32;6.03;;;9.90;88.00;;;;;;5115273;28;20039;-77
2022/09/22 07:30:36;;;;;;;11.40;5.95;;;10.10;87.80;;;;;;5098349;28;20479;-77
2022/09/22 07:33:04;;;;;;;10.85;6.22;;;10.20;87.90;;;;;;5115194;28;20128;-78
2022/09/22 07:35:30;;;;;;;14.25;6.35;;;10.30;87.50;;;;;;5115098;28;20062;-77
2022/09/22 07:37:58;;;;;;;9.73;6.35;;;10.40;87.30;;;;;;5098223;28;20071;-78
2022/09/22 07:40:24;;;;;;;9.93;5.03;;;10.50;87.10;;;;;;5115181;28;20040;-76
2022/09/22 07:42:49;;;;;;;13.15;6.47;;;10.60;87.00;;;;;;5098025;28;20035;-76
2022/09/22 07:45:15;;;;;;;6.90;5.07;;;10.70;86.80;;;;;;5115044;28;20088;-76
2022/09/22 07:50:29;;;;;;;8.20;5.10;;;11.00;86.10;;;;;;5114980;28;20051;-75
2022/09/22 07:52:55;;;;;;;7.55;5.80;;;11.10;85.90;;;;;;5114815;28;20388;-75
2022/09/22 07:55:23;;;;;;;8.43;5.28;;;11.20;85.80;;;;;;5115071;28;20043;-76
2022/09/22 07:57:56;;;;;;;8.90;5.03;;;11.40;85.70;;;;;;5114141;28;20054;-76
2022/09/22 08:00:23;;;;;;;7.78;5.15;;;11.50;85.30;;;;;;5114706;28;20114;-76
2022/09/22 08:02:54;;;;;;;5.28;4.50;;;11.60;85.00;;;;;;5114537;28;20049;-75
2022/09/22 08:05:21;;;;;;;10.57;6.45;;;11.80;84.40;;;;;;5114640;28;20046;-77
2022/09/22 08:07:47;;;;;;;7.82;5.75;;;12.00;84.20;;;;;;5097576;28;20043;-77
2022/09/22 08:10:14;;;;;;;8.68;5.38;;;12.00;84.10;;;;;;5097717;28;20108;-77
2022/09/22 08:12:41;;;;;;;11.23;5.32;;;12.20;83.40;;;;;;5097504;28;20407;-78
2022/09/22 08:15:08;;;;;;;8.57;4.20;;;12.30;83.60;;;;;;5114380;28;20047;-78
2022/09/22 08:17:34;;;;;;;7.70;5.35;;;12.50;83.30;;;;;;5097319;28;20123;-77
2022/09/22 08:20:01;;;;;;;9.90;4.60;;;12.60;82.90;;;;;;5114266;28;20111;-78
2022/09/22 08:22:27;;;;;;;8.10;5.68;;;12.80;80.90;;;;;;5114516;28;20043;-77
2022/09/22 08:24:53;;;;;;;16.30;5.13;;;12.90;81.50;;;;;;5063852;28;20126;-78
2022/09/22 08:27:19;;;;;;;10.05;5.22;;;13.10;80.20;;;;;;5097545;28;20128;-77
2022/09/22 08:29:45;;;;;;;9.45;5.70;;;13.20;80.80;;;;;;5097317;28;20407;-76
2022/09/22 08:32:12;;;;;;;10.48;5.97;;;13.40;80.40;;;;;;5113990;28;20118;-77
2022/09/22 08:34:37;;;;;;;10.10;4.65;;;13.50;80.00;;;;;;5113880;28;20045;-77
2022/09/22 08:37:03;;;;;;;6.15;4.95;;;13.60;79.80;;;;;;5113947;28;20410;-77
2022/09/22 08:39:29;;;;;;;5.50;3.72;;;13.70;79.80;;;;;;5080151;28;20050;-77
2022/09/22 08:42:07;;;;;;;7.25;4.50;;;13.90;75.20;;;;;;5096928;28;20047;-76
2022/09/22 08:44:58;;;;;;;6.93;4.10;;;14.00;76.10;;;;;;5113889;28;20043;-76
2022/09/22 08:53:47;;;;;;;6.78;3.30;;;14.50;75.10;;;;;;5113744;28;20126;-76
2022/09/22 08:56:35;;;;;;;5.10;2.85;;;14.70;73.60;;;;;;5097047;28;20047;-76
2022/09/22 08:59:22;;;;;;;7.05;3.72;;;14.80;73.00;;;;;;5096951;28;20039;-77
2022/09/22 09:02:21;;;;;;;5.60;3.67;;;15.00;70.30;;;;;;5096995;28;20387;-77
2022/09/22 09:05:35;;;;;;;8.38;3.83;;;15.10;71.80;;;;;;5096721;28;20050;-77
2022/09/22 09:08:32;;;;;;;7.72;3.53;;;15.30;71.80;;;;;;5037794;28;20073;-78
2022/09/22 09:11:34;;;;;;;6.43;3.00;;;15.40;70.00;;;;;;5096012;28;20032;-77
2022/09/22 09:14:18;;;;;;;4.60;3.45;;;15.50;69.30;;;;;;5096684;28;20044;-75
2022/09/22 09:16:51;;;;;;;9.00;3.40;;;15.50;65.90;;;;;;5096273;28;20122;-76
2022/09/22 09:19:41;;;;;;;6.00;3.33;;;15.70;67.30;;;;;;5113254;28;20040;-76
2022/09/22 09:22:24;;;;;;;6.10;3.00;;;15.70;66.30;;;;;;5113257;28;20126;-77
2022/09/22 09:25:22;;;;;;;8.27;4.38;;;15.80;66.00;;;;;;5113094;28;20040;-76
2022/09/22 09:28:02;;;;;;;7.82;3.58;;;16.00;66.80;;;;;;5087660;28;20070;-77
2022/09/22 09:30:37;;;;;;;7.30;3.65;;;16.00;66.70;;;;;;5112968;28;20083;-77
2022/09/22 09:33:10;;;;;;;9.35;3.92;;;16.00;64.00;;;;;;5112906;28;20043;-77
2022/09/22 09:35:51;;;;;;;5.55;3.90;;;16.20;62.90;;;;;;5112707;28;20108;-77
2022/09/22 09:38:30;;;;;;;6.25;4.25;;;16.30;63.30;;;;;;5095827;28;20073;-77
2022/09/22 09:41:15;;;;;;;7.45;4.60;;;16.40;64.20;;;;;;5095786;28;20571;-78
2022/09/22 09:43:41;;;;;;;;;;;16.50;64.30;;;;;;5113221;28;20043;-78
2022/09/22 09:46:18;;;;;;;4.50;3.95;;;16.60;62.70;;;;;;5112860;28;19916;-78
2022/09/22 09:49:08;;;;;;;8.02;4.05;;;16.70;63.40;;;;;;5113094;28;20035;-78
2022/09/22 09:51:37;;;;;;;5.85;3.80;;;16.80;63.60;;;;;;5112755;28;20077;-78
2022/09/22 09:54:06;;;;;;;8.90;5.13;;;17.00;63.80;;;;;;5112754;28;20043;-78
2022/09/22 09:56:35;;;;;;;9.35;4.95;;;17.00;61.10;;;;;;5112517;28;20044;-78
2022/09/22 10:01:53;;;;;;;6.50;4.88;;;17.10;58.40;;;;;;5112436;28;20047;-78
2022/09/22 10:04:34;;;;;;;7.32;4.60;;;17.30;58.10;;;;;;5112902;28;20452;-78
2022/09/22 10:07:38;;;;;;;5.57;4.07;;;17.40;58.90;;;;;;5112460;28;20031;-78
2022/09/22 10:10:28;;;;;;;7.65;4.80;;;17.40;57.70;;;;;;5090655;28;20055;-78
2022/09/22 10:13:03;;;;;;;9.20;4.65;;;17.40;58.20;;;;;;5095240;28;20040;-78
2022/09/22 10:15:31;;;;;;;8.75;5.15;;;17.50;58.60;;;;;;5112563;28;20495;-78
2022/09/22 10:17:57;;;;;;;6.68;4.90;;;17.50;54.50;;;;;;5112227;28;20077;-78
2022/09/22 10:20:26;;;;;;;8.30;5.05;;;17.50;57.40;;;;;;5112154;28;20059;-78
2022/09/22 10:22:52;;;;;;;6.68;4.90;;;17.50;56.50;;;;;;5112430;28;20392;-78
2022/09/22 10:25:32;;;;;;;9.27;5.05;;;17.70;55.90;;;;;;5112446;28;20089;-79
2022/09/22 10:28:05;;;;;;;7.38;5.30;;;17.70;54.70;;;;;;5112221;28;20043;-78
2022/09/22 10:30:36;;;;;;;8.75;5.47;;;17.70;55.20;;;;;;5112218;28;20039;-78
2022/09/22 10:33:14;;;;;;;9.82;5.30;;;17.80;55.20;;;;;;5112256;28;20044;-79
2022/09/22 10:36:05;;;;;;;11.38;6.20;;;17.90;54.60;;;;;;5111946;28;20055;-78
2022/09/22 10:38:35;;;;;;;7.72;5.03;;;18.00;54.70;;;;;;5112121;28;20039;-78
2022/09/22 10:41:11;;;;;;;8.60;6.22;;;18.00;51.80;;;;;;5112081;28;20035;-78
2022/09/22 10:43:50;;;;;;;6.82;6.13;;;18.00;52.60;;;;;;5112161;28;20067;-79
2022/09/22 10:46:28;;;;;;;9.13;5.72;;;18.00;52.50;;;;;;5112105;28;20040;-79
2022/09/22 10:48:58;;;;;;;6.65;5.78;;;18.20;53.70;;;;;;5112014;28;20482;-79
2022/09/22 10:51:46;;;;;;;10.32;7.30;;;18.20;53.30;;;;;;5112218;28;20403;-79
2022/09/22 10:54:20;;;;;;;8.07;6.57;;;18.30;51.70;;;;;;5112063;28;20124;-79
2022/09/22 10:56:52;;;;;;;10.55;6.45;;;18.50;52.80;;;;;;5111961;28;20120;-79
2022/09/22 10:59:39;;;;;;;10.75;6.57;;;18.60;51.10;;;;;;5111920;28;20038;-79
2022/09/22 11:02:24;;;;;;;7.72;5.18;;;18.70;52.40;;;;;;5111937;28;20128;-79
2022/09/22 11:05:08;;;;;;;7.30;5.15;;;18.80;50.20;;;;;;5095246;28;20032;-79
2022/09/22 11:14:37;;;;;;;9.88;5.53;;;19.00;50.40;;;;;;5112186;28;20047;-78
2022/09/22 11:17:30;;;;;;;7.78;5.38;;;19.20;50.10;;;;;;5111927;28;20086;-79
2022/09/22 11:20:05;;;;;;;13.10;6.47;;;19.20;50.30;;;;;;5094848;28;20040;-79
2022/09/22 11:22:52;;;;;;;8.43;6.90;;;19.10;50.30;;;;;;5111568;28;20079;-79
2022/09/22 11:25:53;;;;;;;10.68;6.22;;;19.20;50.10;;;;;;5094886;28;20476;-78
2022/09/22 11:28:56;;;;;;;8.95;6.50;;;19.10;49.00;;;;;;5095004;28;20399;-79
2022/09/22 11:31:46;;;;;;;11.23;7.05;;;19.10;49.40;;;;;;5111621;28;20180;-79
2022/09/22 11:34:36;;;;;;;9.80;6.63;;;19.20;48.90;;;;;;5111741;28;20491;-79
2022/09/22 11:37:24;;;;;;;10.48;7.78;;;19.10;48.30;;;;;;5115555;28;20055;-79
2022/09/22 11:39:57;;;;;;;7.95;5.93;;;19.10;49.10;;;;;;5098781;28;20039;-79
2022/09/22 11:42:33;;;;;;;7.47;5.13;;;19.30;47.70;;;;;;5098161;28;20483;-78
2022/09/22 11:45:46;;;;;;;8.50;5.80;;;19.40;48.30;;;;;;5115083;28;20031;-79
2022/09/22 11:48:43;;;;;;;10.40;4.97;;;19.50;48.10;;;;;;5114977;28;20059;-78
2022/09/22 11:51:46;;;;;;;7.65;5.45;;;19.50;46.10;;;;;;5098173;28;20478;-79
2022/09/22 11:54:33;;;;;;;6.53;5.03;;;19.40;46.60;;;;;;5098186;28;20218;-79
2022/09/22 11:57:03;;;;;;;8.15;6.30;;;19.80;47.00;;;;;;5115342;28;20036;-78
2022/09/22 11:59:49;;;;;;;8.30;5.25;;;19.80;47.90;;;;;;5115421;28;20027;-78
2022/09/22 12:02:25;;;;;;;7.32;4.75;;;19.90;48.20;;;;;;5114850;28;20556;-79
2022/09/22 12:05:25;;;;;;;9.32;5.35;;;19.90;47.00;;;;;;5115020;28;20040;-79
2022/09/22 12:08:01;;;;;;;8.63;5.95;;;20.10;46.70;;;;;;5097779;28;20035;-79
2022/09/22 12:10:35;;;;;;;7.25;5.45;;;20.30;46.60;;;;;;5114814;28;20122;-79
2022/09/22 12:13:10;;;;;;;9.35;5.45;;;20.30;46.50;;;;;;5097737;28;20043;-79
2022/09/22 12:15:39;;;;;;;9.77;6.20;;;20.60;45.70;;;;;;5114998;28;20047;-77
2022/09/22 12:18:09;;;;;;;9.32;6.68;;;20.50;46.70;;;;;;5097758;28;20040;-78
2022/09/22 12:20:53;;;;;;;7.07;5.50;;;20.40;45.90;;;;;;5114643;28;20032;-78
2022/09/22 12:23:36;;;;;;;8.30;6.17;;;20.40;46.30;;;;;;5098051;28;20082;-79
2022/09/22 12:26:14;;;;;;;8.38;6.68;;;20.00;47.00;;;;;;5114967;28;20274;-79
2022/09/22 12:28:42;;;;;;;7.43;6.38;;;19.60;47.50;;;;;;5114503;28;20078;-79
2022/09/22 12:31:14;;;;;;;12.00;6.53;;;19.80;48.90;;;;;;5097419;28;20123;-79
2022/09/22 12:34:00;;;;;;;8.45;6.65;;;20.00;48.70;;;;;;5114404;28;20044;-78
2022/09/22 12:36:35;;;;;;;8.63;5.82;;;20.20;46.10;;;;;;5114296;28;20385;-78
2022/09/22 12:39:10;;;;;;;6.80;5.80;;;20.50;47.60;;;;;;5114858;28;20100;-79
2022/09/22 12:41:46;;;;;;;9.82;5.72;;;20.50;44.50;;;;;;5115937;28;20108;-79
2022/09/22 12:44:22;;;;;;;9.18;6.15;;;20.50;45.00;;;;;;5114894;28;20048;-78
2022/09/22 12:46:50;;;;;;;10.40;6.55;;;20.50;44.70;;;;;;5096184;28;20123;-79
2022/09/22 12:49:19;;;;;;;9.88;6.57;;;20.50;44.50;;;;;;5114581;28;20368;-78
2022/09/22 12:51:45;;;;;;;6.82;5.82;;;20.50;44.00;;;;;;5114010;28;20039;-78
2022/09/22 12:54:26;;;;;;;11.05;6.68;;;20.60;46.00;;;;;;5114001;28;20114;-79
2022/09/22 12:57:05;;;;;;;8.75;6.10;;;20.20;44.90;;;;;;5113836;28;20044;-79
2022/09/22 12:59:36;;;;;;;7.45;5.43;;;20.20;46.50;;;;;;5113890;28;20492;-79
2022/09/22 13:02:17;;;;;;;8.85;5.43;;;20.50;45.20;;;;;;5113672;28;20047;-79
2022/09/22 13:04:55;;;;;;;8.52;5.60;;;20.70;46.20;;;;;;5113844;28;20048;-78
2022/09/22 13:07:39;;;;;;;10.65;5.10;;;20.80;44.00;;;;;;5096974;28;20050;-79
2022/09/22 13:10:23;;;;;;;7.30;4.22;;;20.90;45.30;;;;;;5113662;28;20070;-78
2022/09/22 13:13:11;;;;;;;7.10;4.57;;;20.90;44.90;;;;;;5096610;28;20048;-78
2022/09/22 13:15:58;;;;;;;8.50;4.07;;;20.90;45.40;;;;;;5113763;28;20046;-80
2022/09/22 13:18:39;;;;;;;6.75;4.30;;;20.50;45.00;;;;;;5096490;28;20032;-80
2022/09/22 13:21:11;;;;;;;9.45;5.10;;;20.90;45.40;;;;;;5113312;28;20207;-79
2022/09/22 13:23:52;;;;;;;6.20;4.03;;;21.10;43.80;;;;;;5113328;28;20035;-79
2022/09/22 13:26:19;;;;;;;10.38;5.20;;;21.10;45.00;;;;;;5113662;28;20388;-79
2022/09/22 13:29:03;;;;;;;9.38;4.78;;;21.30;44.60;;;;;;5113357;28;20039;-78
2022/09/22 13:31:50;;;;;;;5.95;4.50;;;21.50;44.50;;;;;;5113245;28;20039;-78
2022/09/22 13:34:36;;;;;;;5.20;3.40;;;21.70;44.40;;;;;;5096194;28;20123;-80
2022/09/22 13:37:13;;;;;;;6.90;3.40;;;21.40;43.20;;;;;;5095941;28;20048;-79
2022/09/22 13:39:42;;;;;;;7.85;3.90;;;21.20;44.10;;;;;;5113012;28;20039;-79
2022/09/22 13:42:21;;;;;;;6.22;4.05;;;21.10;43.20;;;;;;5096016;28;20045;-79